Providence, Louisiana
Current Conditions -  °F | °C
As of 9:53 PM on Friday 24 Oct 2014 (Local Time) from KMSY Reporting Station
Clear Clear  
Wind Chill: 65°   Ceiling: Unl
Heat Index: 65°   Visibility: 10mi
Dew Point: 51°   Wind: 3mph
Humidity: 61%   Direction: 340°NNW
Pressure: 30.1"   Gusts: NA
Location:  29.991°N, 90.2553°W
Report Text: KMSY 250253Z 34003KT 10SM CLR 18/11 A3010 RMK AO2 SLP195 T01830106 51013
Loading
Personal Weather Stations






























Interactive Weather Map
Tropical Storm Tracking
New forecast layout! Learn more

10-Day Weather Forecast

Advertisements
Track Severe Weather on mobile